Time;durP1;ratioP1;P1;durP2;ratioP2;P2;SDS_P1;SDS_P2;PMS_P1;PMS_P2;Temp;Humidity;BMP_temperature;BMP_pressure;BME280_temperature;BME280_humidity;BME280_pressure;Samples;Min_cycle;Max_cycle;Signal;HPM_P1;HPM_P2
2021/04/30 01:31:04;;;;;;;3.10;2.45;;;18.10;51.80;;;;;;4956062;29;20185;-81
2021/04/30 02:55:10;;;;;;;3.35;2.13;;;17.90;51.20;;;;;;4933584;29;20268;-82
2021/04/30 03:54:09;;;;;;;2.85;2.22;;;17.90;51.10;;;;;;4872636;29;20330;-81
2021/04/30 03:57:18;;;;;;;3.30;2.10;;;18.00;51.10;;;;;;4872282;29;20268;-81
2021/04/30 04:01:08;;;;;;;3.22;2.17;;;17.90;50.80;;;;;;4856628;29;20184;-81
2021/04/30 04:04:31;;;;;;;4.00;2.50;;;17.90;50.80;;;;;;4835115;29;20204;-81
2021/04/30 04:07:10;;;;;;;2.72;2.03;;;17.90;50.90;;;;;;4800775;29;20191;-81
2021/04/30 04:09:48;;;;;;;2.55;2.10;;;18.00;50.80;;;;;;4793601;29;20195;-81
2021/04/30 04:12:21;;;;;;;2.90;2.20;;;18.00;50.40;;;;;;4773249;30;20215;-81
2021/04/30 04:15:08;;;;;;;;;;;;;;;;;;;;;
2021/04/30 04:17:44;;;;;;;2.58;2.17;;;18.00;50.30;;;;;;4747939;30;20270;-81
2021/04/30 04:20:15;;;;;;;3.30;2.50;;;18.10;49.80;;;;;;4748708;30;20188;-81
2021/04/30 04:22:56;;;;;;;2.45;2.17;;;18.10;49.70;;;;;;4749812;30;20193;-81
2021/04/30 04:25:34;;;;;;;3.85;2.20;;;18.10;49.80;;;;;;4748657;30;20200;-81
2021/04/30 04:28:18;;;;;;;2.17;1.90;;;18.10;49.80;;;;;;4737372;30;20196;-81
2021/04/30 04:30:56;;;;;;;3.03;2.28;;;18.10;50.00;;;;;;4770010;29;20202;-81
2021/04/30 04:33:44;;;;;;;2.30;2.10;;;18.10;49.80;;;;;;4784665;30;20212;-81
2021/04/30 04:36:22;;;;;;;2.80;2.25;;;18.10;49.40;;;;;;4764464;29;20721;-81
2021/04/30 04:39:12;;;;;;;2.42;2.00;;;18.10;49.50;;;;;;4897373;29;20277;-81
2021/04/30 04:41:40;;;;;;;3.10;1.83;;;18.20;49.10;;;;;;4931412;29;20681;-81
2021/04/30 04:44:14;;;;;;;2.97;2.17;;;18.20;49.00;;;;;;4899794;29;20689;-81
2021/04/30 04:47:17;;;;;;;2.33;2.10;;;18.20;49.40;;;;;;4899549;29;20170;-81
2021/04/30 04:50:09;;;;;;;2.50;2.00;;;18.20;48.90;;;;;;4977386;28;20216;-81
2021/04/30 04:53:02;;;;;;;3.20;2.22;;;18.20;48.70;;;;;;4958682;28;20204;-81
2021/04/30 04:55:44;;;;;;;2.70;2.10;;;18.20;49.30;;;;;;4955621;28;20228;-81
2021/04/30 04:58:20;;;;;;;3.53;1.73;;;18.20;48.20;;;;;;4957399;28;20196;-81
2021/04/30 05:00:59;;;;;;;2.30;1.98;;;18.30;48.40;;;;;;4973945;28;20156;-81
2021/04/30 05:03:48;;;;;;;2.42;2.10;;;18.30;49.00;;;;;;4957785;28;20184;-81
2021/04/30 05:06:25;;;;;;;4.03;1.88;;;18.30;48.90;;;;;;4969357;28;20275;-81
2021/04/30 05:08:52;;;;;;;3.28;2.20;;;18.30;48.70;;;;;;4971835;28;20564;-81
2021/04/30 05:11:18;;;;;;;2.97;2.00;;;18.30;48.40;;;;;;4940403;28;20234;-82
2021/04/30 05:13:45;;;;;;;2.80;2.13;;;18.40;48.50;;;;;;4952896;28;20189;-78
2021/04/30 05:16:13;;;;;;;2.58;2.20;;;18.40;48.40;;;;;;4985841;28;20172;-78
2021/04/30 05:18:41;;;;;;;3.05;2.00;;;18.40;48.00;;;;;;4941266;28;20177;-79
2021/04/30 05:21:12;;;;;;;2.33;2.03;;;18.40;48.10;;;;;;4969821;29;20193;-79
2021/04/30 05:23:38;;;;;;;3.03;1.95;;;18.40;47.90;;;;;;4972326;28;20235;-79
2021/04/30 05:26:05;;;;;;;2.40;1.83;;;18.50;48.00;;;;;;4973678;28;20228;-79
2021/04/30 05:28:31;;;;;;;3.53;2.13;;;18.40;47.90;;;;;;4952885;29;20245;-78
2021/04/30 05:30:57;;;;;;;2.95;2.10;;;18.40;47.80;;;;;;4940741;28;20181;-79
2021/04/30 05:33:24;;;;;;;4.10;2.13;;;18.40;47.90;;;;;;4971095;28;20192;-80
2021/04/30 05:35:51;;;;;;;3.42;1.70;;;18.40;48.00;;;;;;4966560;29;20218;-81
2021/04/30 05:38:18;;;;;;;2.17;1.80;;;18.40;47.60;;;;;;4950798;29;20176;-81
2021/04/30 05:40:45;;;;;;;2.90;2.10;;;18.40;47.80;;;;;;4951584;29;20241;-80
2021/04/30 05:46:38;;;;;;;2.88;2.00;;;18.40;48.20;;;;;;4972695;28;20180;-80
2021/04/30 05:49:10;;;;;;;2.90;1.80;;;18.30;48.20;;;;;;4954306;28;20180;-81
2021/04/30 05:51:36;;;;;;;2.47;1.90;;;18.40;48.40;;;;;;4986176;28;20309;-80
2021/04/30 05:54:03;;;;;;;2.75;2.20;;;18.40;48.50;;;;;;4967472;28;20216;-80
2021/04/30 05:56:30;;;;;;;2.40;1.92;;;18.40;49.00;;;;;;4970637;28;20180;-81
2021/04/30 05:59:04;;;;;;;2.80;2.00;;;18.30;49.10;;;;;;4953950;28;20172;-80
2021/04/30 06:01:31;;;;;;;2.60;1.90;;;18.30;49.10;;;;;;4954432;28;20175;-80
2021/04/30 06:03:58;;;;;;;2.47;2.13;;;18.30;49.00;;;;;;4987743;28;20219;-80
2021/04/30 06:06:24;;;;;;;3.13;2.20;;;18.30;49.10;;;;;;4969779;28;20173;-80
2021/04/30 06:08:59;;;;;;;3.55;2.05;;;18.30;48.90;;;;;;4938285;28;20615;-80
2021/04/30 06:11:25;;;;;;;2.63;2.00;;;18.30;48.80;;;;;;4970842;28;20171;-80
2021/04/30 06:13:53;;;;;;;3.47;2.13;;;18.40;48.70;;;;;;4952371;28;20247;-80
2021/04/30 06:16:19;;;;;;;2.80;2.20;;;18.40;48.30;;;;;;4937022;28;20173;-83
2021/04/30 06:18:45;;;;;;;2.38;2.10;;;18.40;48.30;;;;;;4965883;28;20172;-79
2021/04/30 06:21:11;;;;;;;2.60;1.98;;;18.40;48.40;;;;;;4948808;29;20177;-80
2021/04/30 06:23:38;;;;;;;2.60;2.15;;;18.40;48.40;;;;;;4918586;29;20201;-79
2021/04/30 06:26:06;;;;;;;2.58;2.05;;;18.40;48.40;;;;;;4949953;29;20165;-80
2021/04/30 06:28:33;;;;;;;2.92;2.30;;;18.40;48.20;;;;;;4949321;29;20224;-79
2021/04/30 06:31:08;;;;;;;2.13;1.92;;;18.40;48.40;;;;;;4965934;29;20687;-79
2021/04/30 06:33:34;;;;;;;3.15;2.00;;;18.40;48.30;;;;;;4947812;29;20286;-79
2021/04/30 06:36:08;;;;;;;2.80;1.95;;;18.40;48.20;;;;;;4966367;29;20157;-80
2021/04/30 06:38:36;;;;;;;2.90;1.90;;;18.50;47.90;;;;;;4948851;29;20157;-80
2021/04/30 06:41:03;;;;;;;2.38;1.98;;;18.50;48.20;;;;;;4965749;29;20158;-79
2021/04/30 06:43:37;;;;;;;3.75;1.90;;;18.40;48.20;;;;;;4933281;29;20262;-79
2021/04/30 06:46:12;;;;;;;3.88;1.85;;;18.40;47.90;;;;;;4950480;29;20644;-80
2021/04/30 06:48:39;;;;;;;2.45;1.90;;;18.40;48.10;;;;;;4964664;28;20186;-79
2021/04/30 06:51:05;;;;;;;4.32;2.00;;;18.40;48.30;;;;;;4965755;28;20217;-79
2021/04/30 06:53:33;;;;;;;4.18;2.13;;;18.40;48.30;;;;;;4966242;29;20669;-80
2021/04/30 06:56:00;;;;;;;2.47;2.20;;;18.40;48.50;;;;;;4966758;29;20196;-80
2021/04/30 06:58:27;;;;;;;2.50;2.10;;;18.40;48.20;;;;;;4966063;29;20218;-79
2021/04/30 07:00:52;;;;;;;1.80;1.55;;;18.40;48.20;;;;;;4966560;29;20216;-79
2021/04/30 07:03:20;;;;;;;3.72;1.83;;;18.40;47.80;;;;;;4966701;29;20201;-79
2021/04/30 07:05:48;;;;;;;2.08;1.75;;;18.40;48.20;;;;;;4965755;29;20700;-79
2021/04/30 07:08:15;;;;;;;2.75;1.75;;;18.40;48.10;;;;;;4968574;28;20272;-79
2021/04/30 07:10:43;;;;;;;2.47;2.10;;;18.40;48.20;;;;;;4966403;29;20204;-79
2021/04/30 07:13:13;;;;;;;2.80;2.03;;;18.40;48.10;;;;;;4966001;28;20224;-80
2021/04/30 07:15:39;;;;;;;2.92;2.08;;;18.40;48.10;;;;;;4968395;28;20169;-79
2021/04/30 07:18:08;;;;;;;1.90;1.70;;;18.30;48.30;;;;;;4950319;29;20189;-80
2021/04/30 07:20:35;;;;;;;2.55;2.15;;;18.30;47.60;;;;;;4968258;28;20177;-79
2021/04/30 07:23:01;;;;;;;2.20;1.98;;;18.40;47.80;;;;;;4968402;28;20180;-80
2021/04/30 07:25:29;;;;;;;2.45;2.00;;;18.40;48.20;;;;;;4966302;29;20177;-80
2021/04/30 07:27:56;;;;;;;3.95;2.05;;;18.40;48.10;;;;;;4967119;29;20232;-80
2021/04/30 07:30:31;;;;;;;4.30;2.05;;;18.40;48.70;;;;;;4967310;29;20244;-80
2021/04/30 07:32:57;;;;;;;3.08;1.80;;;18.40;48.50;;;;;;4968584;28;20184;-80
2021/04/30 07:35:24;;;;;;;3.90;2.20;;;18.40;48.90;;;;;;4967743;29;20167;-79
2021/04/30 07:37:51;;;;;;;2.78;1.90;;;18.40;48.50;;;;;;4966627;29;20158;-79
2021/04/30 07:40:17;;;;;;;2.25;2.00;;;18.40;48.30;;;;;;4969150;28;20165;-79
2021/04/30 07:42:43;;;;;;;4.47;2.10;;;18.40;49.00;;;;;;4970866;29;20161;-81
2021/04/30 07:45:13;;;;;;;2.35;2.00;;;18.40;48.70;;;;;;4970282;29;20655;-79
2021/04/30 07:47:39;;;;;;;5.00;2.58;;;18.30;49.60;;;;;;4953775;29;20180;-81
2021/04/30 07:50:06;;;;;;;7.05;2.17;;;18.40;48.50;;;;;;4970457;29;20216;-82
2021/04/30 07:52:32;;;;;;;1.80;1.70;;;18.40;49.30;;;;;;4971014;29;20197;-80
2021/04/30 07:55:01;;;;;;;4.97;2.00;;;18.30;48.80;;;;;;4969160;29;20165;-81
2021/04/30 07:57:29;;;;;;;3.60;2.28;;;18.30;49.30;;;;;;4970395;28;20150;-80
2021/04/30 08:00:04;;;;;;;4.13;2.00;;;18.30;49.10;;;;;;4972141;28;20161;-80
2021/04/30 08:02:31;;;;;;;3.72;2.30;;;18.30;49.70;;;;;;4971090;28;20168;-80
2021/04/30 08:04:57;;;;;;;3.03;1.85;;;18.30;49.90;;;;;;4971978;29;20169;-80
2021/04/30 08:07:23;;;;;;;4.43;2.58;;;18.20;49.40;;;;;;4971438;28;20733;-80
2021/04/30 08:09:53;;;;;;;2.70;1.95;;;18.30;49.60;;;;;;4970056;29;20169;-79
2021/04/30 08:12:21;;;;;;;3.45;2.38;;;18.30;49.60;;;;;;4970448;29;20190;-80
2021/04/30 08:14:49;;;;;;;2.95;1.92;;;18.20;50.50;;;;;;4970275;29;20161;-80
2021/04/30 08:17:16;;;;;;;2.05;1.67;;;18.20;49.60;;;;;;4971235;29;20158;-80
2021/04/30 08:19:55;;;;;;;4.05;2.10;;;18.20;49.60;;;;;;4970480;29;20741;-80
2021/04/30 08:22:20;;;;;;;3.75;2.20;;;18.10;49.70;;;;;;4970571;29;20674;-80
2021/04/30 08:24:47;;;;;;;3.97;2.10;;;18.20;49.80;;;;;;4968268;29;20173;-79
2021/04/30 08:27:13;;;;;;;3.17;2.15;;;18.20;50.20;;;;;;4970413;29;20161;-80
2021/04/30 08:29:40;;;;;;;3.35;2.20;;;18.30;49.80;;;;;;4969872;29;20244;-80
2021/04/30 08:32:06;;;;;;;2.92;2.33;;;18.30;49.90;;;;;;4969439;29;20208;-79
2021/04/30 08:34:33;;;;;;;2.75;2.03;;;18.30;50.20;;;;;;4970998;29;20168;-79
2021/04/30 08:36:59;;;;;;;3.58;2.10;;;18.50;49.80;;;;;;4968741;29;20166;-80
2021/04/30 08:39:34;;;;;;;3.95;2.35;;;18.50;50.30;;;;;;4968743;29;20303;-80
2021/04/30 08:42:03;;;;;;;4.72;2.20;;;18.40;49.90;;;;;;4969635;29;20161;-80
2021/04/30 08:44:35;;;;;;;2.90;2.10;;;18.50;49.50;;;;;;4971052;28;20162;-79
2021/04/30 08:47:00;;;;;;;2.58;2.10;;;18.50;51.10;;;;;;4975120;29;20157;-81
2021/04/30 08:49:29;;;;;;;3.25;1.80;;;18.40;50.70;;;;;;4978596;28;20158;-82
2021/04/30 08:51:56;;;;;;;3.53;2.30;;;18.40;50.30;;;;;;4947213;28;20197;-82
2021/04/30 08:54:21;;;;;;;3.58;2.30;;;18.40;50.70;;;;;;4980450;28;20228;-82
2021/04/30 08:56:54;;;;;;;4.30;2.05;;;18.40;50.70;;;;;;4981830;28;20571;-81
2021/04/30 08:59:23;;;;;;;2.75;2.03;;;18.50;50.40;;;;;;4951008;28;20235;-82
2021/04/30 10:07:39;;;;;;;2.95;2.20;;;18.90;49.40;;;;;;4861079;29;20296;-81
2021/04/30 10:10:11;;;;;;;2.00;1.80;;;18.80;49.40;;;;;;4846412;29;20193;-82
2021/04/30 10:12:41;;;;;;;2.92;2.15;;;18.80;49.50;;;;;;4853539;29;20238;-81
2021/04/30 10:15:19;;;;;;;3.05;2.38;;;18.80;48.90;;;;;;4874046;29;20178;-81
2021/04/30 10:18:41;;;;;;;2.40;1.80;;;18.80;49.60;;;;;;4900267;29;20214;-82
2021/04/30 10:25:11;;;;;;;3.80;2.08;;;18.80;49.70;;;;;;4934132;29;20256;-82
2021/04/30 10:31:57;;;;;;;2.40;2.00;;;18.90;49.00;;;;;;4909509;29;20183;-80
2021/04/30 10:38:34;;;;;;;3.53;1.95;;;18.80;49.30;;;;;;4861451;29;20192;-81
2021/04/30 10:52:03;;;;;;;3.03;2.08;;;18.80;49.30;;;;;;4884476;29;20226;-81
2021/04/30 10:58:22;;;;;;;;;;;;;;;;;;;;;
2021/04/30 11:01:38;;;;;;;2.20;1.80;;;18.90;49.90;;;;;;4993399;28;20193;-81
2021/04/30 11:04:46;;;;;;;2.63;2.00;;;18.80;49.80;;;;;;4975126;28;20194;-81
2021/04/30 11:10:41;;;;;;;2.70;2.10;;;18.90;49.00;;;;;;4954989;29;20193;-81
2021/04/30 11:13:17;;;;;;;2.60;1.85;;;18.80;50.10;;;;;;4925405;29;20205;-80
2021/04/30 11:15:46;;;;;;;3.42;1.70;;;18.80;50.00;;;;;;4940732;29;20200;-81
2021/04/30 11:29:30;;;;;;;;;;;;;;;;;;;;;
2021/04/30 11:35:40;;;;;;;3.10;1.83;;;18.90;49.20;;;;;;4879547;29;20200;-81
2021/04/30 11:43:03;;;;;;;2.50;2.30;;;18.90;49.40;;;;;;4751269;30;20182;-81
2021/04/30 11:46:16;;;;;;;;;;;;;;;;;;;;;
2021/04/30 11:49:41;;;;;;;2.50;2.10;;;18.80;49.90;;;;;;4680198;30;20215;-81
2021/04/30 11:56:11;;;;;;;2.38;2.00;;;18.80;49.10;;;;;;4688369;30;20192;-81
2021/04/30 11:59:22;;;;;;;2.15;1.80;;;18.90;49.60;;;;;;4680598;30;20193;-82
2021/04/30 12:05:32;;;;;;;3.58;2.20;;;18.90;48.90;;;;;;4681605;30;20203;-79
2021/04/30 12:08:09;;;;;;;4.70;2.00;;;18.80;48.90;;;;;;4653830;30;20196;-79
2021/04/30 12:30:58;;;;;;;2.47;2.10;;;18.90;50.40;;;;;;4939808;29;20347;-80
2021/04/30 12:48:07;;;;;;;3.17;1.80;;;19.00;49.30;;;;;;4808558;29;20186;-81
2021/04/30 12:51:07;;;;;;;2.20;1.70;;;19.00;49.20;;;;;;4792791;30;20207;-82
2021/04/30 12:57:25;;;;;;;2.28;1.90;;;18.90;48.70;;;;;;4807913;29;20318;-82
2021/04/30 13:07:55;;;;;;;2.35;1.60;;;18.90;49.60;;;;;;4810372;30;20183;-81
2021/04/30 13:14:07;;;;;;;4.38;1.70;;;18.90;48.60;;;;;;4808111;30;20264;-80
2021/04/30 13:17:22;;;;;;;2.05;1.80;;;18.90;48.50;;;;;;4815752;29;20190;-81
2021/04/30 13:19:49;;;;;;;2.60;2.00;;;19.00;48.80;;;;;;4852548;29;20188;-80
2021/04/30 13:22:22;;;;;;;2.53;2.03;;;19.00;49.00;;;;;;4919544;29;20885;-80
2021/04/30 13:28:21;;;;;;;2.20;1.92;;;19.00;48.80;;;;;;4938369;29;20607;-80
2021/04/30 13:30:55;;;;;;;2.63;1.98;;;19.00;48.90;;;;;;4906338;29;20183;-80
2021/04/30 13:33:34;;;;;;;2.75;2.08;;;19.00;48.90;;;;;;4903251;29;20214;-81
2021/04/30 13:36:03;;;;;;;2.58;2.03;;;19.00;48.70;;;;;;4905845;29;20189;-80
2021/04/30 13:38:30;;;;;;;2.63;1.88;;;19.00;49.40;;;;;;4904262;29;20238;-80
2021/04/30 13:41:19;;;;;;;1.98;1.77;;;19.00;48.40;;;;;;4905350;29;20711;-79
2021/04/30 13:43:45;;;;;;;4.78;1.88;;;19.00;49.40;;;;;;4907191;29;20182;-80
2021/04/30 13:46:21;;;;;;;2.97;1.80;;;19.00;48.50;;;;;;4905890;29;20190;-80
2021/04/30 13:48:48;;;;;;;2.83;2.00;;;19.00;48.40;;;;;;4906956;29;20179;-80
2021/04/30 13:51:27;;;;;;;2.20;2.00;;;19.00;48.70;;;;;;4908399;29;20230;-80
2021/04/30 13:53:58;;;;;;;1.80;1.60;;;19.00;48.90;;;;;;4907496;29;20179;-79
2021/04/30 13:56:28;;;;;;;1.95;1.63;;;18.90;48.70;;;;;;4931877;29;20253;-80
2021/04/30 13:59:02;;;;;;;2.75;1.92;;;19.00;48.30;;;;;;4959662;29;20273;-80
2021/04/30 14:01:32;;;;;;;2.55;1.88;;;19.00;48.50;;;;;;4930049;29;20178;-80
2021/04/30 14:04:02;;;;;;;2.40;1.80;;;19.00;48.90;;;;;;4930846;29;20233;-79
2021/04/30 14:06:38;;;;;;;2.20;1.80;;;19.00;49.20;;;;;;4929612;29;20165;-79
2021/04/30 14:09:09;;;;;;;3.50;2.10;;;19.00;48.50;;;;;;4946676;29;20156;-80
2021/04/30 14:11:35;;;;;;;2.38;1.90;;;18.90;48.10;;;;;;4943915;29;20157;-80
2021/04/30 14:14:21;;;;;;;3.58;2.25;;;19.00;48.80;;;;;;4927101;29;20216;-80
2021/04/30 14:16:51;;;;;;;3.20;2.10;;;18.90;49.00;;;;;;4945904;29;20161;-80
2021/04/30 14:19:19;;;;;;;2.28;1.75;;;19.00;49.20;;;;;;4945879;29;20177;-79
2021/04/30 14:22:10;;;;;;;3.38;1.92;;;19.00;48.40;;;;;;4947092;29;20153;-80
2021/04/30 14:24:38;;;;;;;4.05;2.00;;;18.90;48.50;;;;;;4944901;29;20168;-80
2021/04/30 14:27:11;;;;;;;2.28;1.90;;;19.00;48.20;;;;;;4944188;29;20512;-81
2021/04/30 14:29:39;;;;;;;2.10;1.73;;;19.00;48.70;;;;;;4922967;29;20205;-79
2021/04/30 14:32:12;;;;;;;2.97;2.20;;;19.00;48.30;;;;;;4921523;29;20165;-79
2021/04/30 14:34:45;;;;;;;3.97;1.90;;;19.00;48.00;;;;;;4936468;29;20170;-79
2021/04/30 14:37:14;;;;;;;2.00;1.80;;;19.00;49.40;;;;;;4929742;29;20205;-79
2021/04/30 14:39:43;;;;;;;3.88;2.00;;;18.90;49.70;;;;;;4935541;29;20165;-79
2021/04/30 14:42:17;;;;;;;2.38;1.90;;;19.00;48.70;;;;;;4963933;28;20191;-80
2021/04/30 14:44:50;;;;;;;2.70;1.63;;;18.90;48.20;;;;;;4952294;29;20179;-79
2021/04/30 14:47:16;;;;;;;2.42;2.00;;;19.00;47.80;;;;;;4944007;29;20212;-77
2021/04/30 14:49:51;;;;;;;1.80;1.65;;;19.00;48.10;;;;;;4935381;29;20173;-79
2021/04/30 14:52:21;;;;;;;2.42;1.58;;;19.00;49.20;;;;;;4952968;28;20232;-79
2021/04/30 14:54:55;;;;;;;2.30;2.10;;;18.90;47.50;;;;;;4939215;28;20172;-79
2021/04/30 14:57:25;;;;;;;1.98;1.77;;;19.00;49.10;;;;;;4953234;28;20242;-81
2021/04/30 15:00:00;;;;;;;2.85;2.28;;;19.00;48.40;;;;;;4951345;29;20240;-80
2021/04/30 15:02:27;;;;;;;3.17;1.80;;;19.00;48.30;;;;;;4955039;28;20251;-81
2021/04/30 15:05:07;;;;;;;2.60;1.90;;;19.00;49.00;;;;;;4939260;28;20165;-80
2021/04/30 15:11:00;;;;;;;3.88;2.00;;;19.00;48.20;;;;;;4957024;29;20180;-80
2021/04/30 15:13:43;;;;;;;4.30;2.05;;;19.00;47.70;;;;;;4952128;29;20197;-80
2021/04/30 15:16:09;;;;;;;2.20;2.00;;;19.00;47.50;;;;;;4951837;29;20175;-80
2021/04/30 15:18:50;;;;;;;2.83;2.00;;;19.00;48.00;;;;;;4952437;29;20224;-79
2021/04/30 15:21:30;;;;;;;2.58;1.67;;;19.00;48.30;;;;;;4936858;29;20233;-79
2021/04/30 15:24:15;;;;;;;2.13;1.80;;;19.00;48.10;;;;;;4952984;29;20134;-79
2021/04/30 15:26:41;;;;;;;2.80;1.80;;;19.00;48.90;;;;;;4953054;29;20157;-79
2021/04/30 15:29:13;;;;;;;2.80;1.63;;;19.00;48.80;;;;;;4937203;29;20172;-78
2021/04/30 15:31:42;;;;;;;2.85;1.60;;;19.00;48.30;;;;;;4951854;29;20165;-78
2021/04/30 15:34:20;;;;;;;2.50;1.70;;;19.00;48.20;;;;;;4935334;29;20201;-78
2021/04/30 15:37:02;;;;;;;2.15;1.80;;;19.00;47.90;;;;;;4934453;29;20216;-79
2021/04/30 15:39:39;;;;;;;4.43;2.00;;;19.00;48.50;;;;;;4966840;29;20603;-79
2021/04/30 15:42:08;;;;;;;2.55;2.00;;;19.00;47.90;;;;;;4935737;29;20169;-79
2021/04/30 15:44:34;;;;;;;1.90;1.70;;;19.00;48.10;;;;;;4962725;28;20176;-79
2021/04/30 15:47:08;;;;;;;2.70;1.88;;;19.00;47.50;;;;;;4947615;28;20188;-79
2021/04/30 15:49:36;;;;;;;2.40;1.80;;;19.00;48.30;;;;;;4953172;28;20235;-79
2021/04/30 15:52:02;;;;;;;2.90;2.10;;;19.00;48.80;;;;;;4969556;28;20223;-80
2021/04/30 15:54:36;;;;;;;2.38;1.75;;;19.00;48.50;;;;;;4953767;28;20316;-80
2021/04/30 15:57:09;;;;;;;5.55;1.70;;;19.00;47.10;;;;;;4968782;28;20185;-79
2021/04/30 15:59:46;;;;;;;2.75;2.00;;;19.00;47.80;;;;;;4953911;28;20212;-80
2021/04/30 16:02:38;;;;;;;3.10;1.70;;;19.00;47.40;;;;;;4970066;28;20251;-81
2021/04/30 16:05:24;;;;;;;2.60;1.73;;;19.10;46.60;;;;;;4899286;29;20184;-80
2021/04/30 16:08:01;;;;;;;3.13;1.70;;;19.10;46.70;;;;;;4899573;29;20211;-79
2021/04/30 16:10:43;;;;;;;4.60;2.15;;;19.10;47.30;;;;;;4913267;29;20185;-78
2021/04/30 16:13:12;;;;;;;3.38;1.77;;;19.10;47.80;;;;;;4912944;29;20223;-79
2021/04/30 16:15:46;;;;;;;3.78;1.80;;;19.20;47.10;;;;;;4897546;29;20225;-79
2021/04/30 16:18:15;;;;;;;2.25;1.83;;;19.10;47.70;;;;;;4897329;29;20295;-79
2021/04/30 16:20:46;;;;;;;2.35;2.10;;;19.10;47.90;;;;;;4912119;29;20168;-79
2021/04/30 16:23:16;;;;;;;3.00;1.90;;;19.10;48.50;;;;;;4912694;29;20202;-79
2021/04/30 16:26:03;;;;;;;4.00;1.70;;;19.10;48.40;;;;;;4883432;29;20216;-79
2021/04/30 16:29:06;;;;;;;4.00;2.10;;;19.00;47.20;;;;;;4897491;29;20251;-79
2021/04/30 16:31:56;;;;;;;4.47;1.65;;;19.10;47.20;;;;;;4917649;29;20167;-79
2021/04/30 16:35:07;;;;;;;4.45;1.90;;;19.10;48.20;;;;;;4905083;29;20223;-80
2021/04/30 16:37:34;;;;;;;4.45;2.00;;;19.10;47.70;;;;;;4904398;29;20746;-80
2021/04/30 16:40:31;;;;;;;6.43;1.80;;;19.10;47.70;;;;;;4904109;29;20183;-80
2021/04/30 16:43:09;;;;;;;7.28;2.10;;;19.10;47.50;;;;;;4930375;28;20185;-80
2021/04/30 16:46:28;;;;;;;;;;;;;;;;;;;;;
2021/04/30 16:49:04;;;;;;;2.60;2.35;;;19.10;47.20;;;;;;4996468;28;20219;-80
2021/04/30 16:51:46;;;;;;;9.43;2.13;;;19.10;48.50;;;;;;4965277;28;20176;-80
2021/04/30 16:54:36;;;;;;;8.23;2.42;;;19.00;48.70;;;;;;4983236;28;20184;-82
2021/04/30 16:57:11;;;;;;;6.18;2.22;;;19.00;48.10;;;;;;4969042;28;20164;-81
2021/04/30 16:59:38;;;;;;;9.82;2.25;;;19.00;47.50;;;;;;4924083;29;20230;-81
2021/04/30 17:02:52;;;;;;;12.85;2.72;;;19.10;47.20;;;;;;4925052;29;20162;-81
2021/04/30 17:06:14;;;;;;;7.72;2.30;;;19.10;48.50;;;;;;4927262;29;20265;-81
2021/04/30 17:16:26;;;;;;;13.20;2.40;;;19.00;48.00;;;;;;4942185;29;20190;-81
2021/04/30 17:19:29;;;;;;;13.10;2.97;;;19.00;48.10;;;;;;4925920;29;20199;-81
2021/04/30 17:22:16;;;;;;;4.97;2.15;;;19.10;47.10;;;;;;4941628;29;20153;-81
2021/04/30 17:37:53;;;;;;;3.83;2.10;;;19.10;48.00;;;;;;5949273;23;20176;-79
2021/04/30 17:40:20;;;;;;;6.47;2.20;;;19.00;48.10;;;;;;4939281;29;20169;-78
2021/04/30 17:43:06;;;;;;;6.82;2.53;;;19.00;48.20;;;;;;4954584;29;20236;-79
2021/04/30 17:45:40;;;;;;;6.70;2.03;;;19.00;48.40;;;;;;4936155;29;20207;-79
2021/04/30 17:48:13;;;;;;;9.45;2.40;;;19.00;48.60;;;;;;4954206;29;20164;-80
2021/04/30 17:50:44;;;;;;;6.07;1.98;;;19.00;48.40;;;;;;4939098;29;20185;-78
2021/04/30 17:53:11;;;;;;;5.97;2.22;;;19.00;48.30;;;;;;4939944;29;20193;-78
2021/04/30 17:55:38;;;;;;;8.07;2.15;;;19.00;48.00;;;;;;4939192;29;20177;-79
2021/04/30 17:58:09;;;;;;;6.45;2.08;;;19.00;47.20;;;;;;4940574;29;20171;-78
2021/04/30 18:00:36;;;;;;;7.72;2.35;;;19.00;48.00;;;;;;4940715;29;20177;-78
2021/04/30 18:03:06;;;;;;;7.93;2.15;;;19.00;47.80;;;;;;4942836;29;20282;-78
2021/04/30 18:05:43;;;;;;;4.85;2.10;;;19.00;48.90;;;;;;4958272;29;20181;-78
2021/04/30 18:08:16;;;;;;;4.28;2.20;;;19.00;48.30;;;;;;4958344;29;20160;-78
2021/04/30 18:10:59;;;;;;;5.78;2.20;;;19.00;48.70;;;;;;4943865;29;20154;-78
2021/04/30 18:13:28;;;;;;;4.72;2.08;;;19.00;48.10;;;;;;4959728;29;20224;-78
2021/04/30 18:16:04;;;;;;;5.30;2.13;;;18.90;47.60;;;;;;4945281;29;20181;-78
2021/04/30 18:18:39;;;;;;;7.68;2.08;;;18.90;47.80;;;;;;4943548;29;20181;-78
2021/04/30 18:21:09;;;;;;;3.05;1.90;;;18.90;48.20;;;;;;4940171;29;20181;-78
2021/04/30 18:23:43;;;;;;;2.97;2.10;;;18.90;47.20;;;;;;4957180;29;20199;-78
2021/04/30 18:26:11;;;;;;;3.95;2.20;;;18.90;47.70;;;;;;4956338;29;20157;-78
2021/04/30 18:28:38;;;;;;;7.03;2.05;;;18.90;48.20;;;;;;4941537;29;20229;-78
2021/04/30 18:31:04;;;;;;;3.42;1.90;;;18.90;47.50;;;;;;4940751;29;20201;-78
2021/04/30 18:33:33;;;;;;;5.18;2.20;;;18.90;47.50;;;;;;4941494;29;20189;-78
2021/04/30 18:36:03;;;;;;;5.15;2.17;;;18.90;47.70;;;;;;4943487;29;20206;-78
2021/04/30 18:38:30;;;;;;;5.30;2.15;;;18.90;47.50;;;;;;4940160;29;20224;-78
2021/04/30 18:40:56;;;;;;;3.95;2.10;;;18.90;47.50;;;;;;4939659;29;20157;-78
2021/04/30 18:43:22;;;;;;;7.28;2.35;;;18.90;47.80;;;;;;4956336;29;20197;-78
2021/04/30 18:45:48;;;;;;;3.40;2.20;;;18.90;47.80;;;;;;4940194;29;20586;-78
2021/04/30 18:48:14;;;;;;;5.28;2.08;;;18.90;48.10;;;;;;4939545;29;20177;-78
2021/04/30 18:50:40;;;;;;;4.72;2.20;;;18.80;47.60;;;;;;4956003;29;20244;-78
2021/04/30 18:53:12;;;;;;;8.68;2.53;;;18.80;47.80;;;;;;4940024;29;20205;-78
2021/04/30 18:55:42;;;;;;;3.92;1.95;;;18.80;47.60;;;;;;4939183;29;20204;-78
2021/04/30 18:58:13;;;;;;;6.35;2.60;;;18.80;47.60;;;;;;4940290;29;20233;-78
2021/04/30 19:00:46;;;;;;;6.75;2.30;;;18.80;47.60;;;;;;4939818;29;20189;-78
2021/04/30 19:03:15;;;;;;;3.83;1.98;;;18.80;47.50;;;;;;4940748;29;20246;-78
2021/04/30 19:05:46;;;;;;;5.38;2.08;;;18.80;47.70;;;;;;4940108;29;20197;-78
2021/04/30 19:08:22;;;;;;;4.82;2.35;;;18.80;47.60;;;;;;4939416;29;20177;-78
2021/04/30 19:10:57;;;;;;;5.05;2.17;;;18.80;47.70;;;;;;4940139;29;20253;-79
2021/04/30 19:13:33;;;;;;;4.90;2.72;;;18.80;48.00;;;;;;4974009;29;20185;-78
2021/04/30 19:15:59;;;;;;;4.70;2.42;;;18.70;47.70;;;;;;4940812;29;20181;-79
2021/04/30 19:18:25;;;;;;;5.22;2.47;;;18.70;47.70;;;;;;4940121;29;20177;-78
2021/04/30 19:20:52;;;;;;;4.95;2.33;;;18.70;47.60;;;;;;4955717;29;20173;-78
2021/04/30 19:23:18;;;;;;;5.25;1.88;;;18.70;47.90;;;;;;4956128;29;20238;-78
2021/04/30 19:25:49;;;;;;;4.63;2.40;;;18.70;47.60;;;;;;4940087;29;20176;-79
2021/04/30 19:28:16;;;;;;;4.07;2.30;;;18.70;47.60;;;;;;4956653;29;20162;-79
2021/04/30 19:30:45;;;;;;;3.20;2.10;;;18.70;47.50;;;;;;4956343;29;20213;-78
2021/04/30 19:33:12;;;;;;;3.47;2.20;;;18.70;47.60;;;;;;4940329;29;20200;-79
2021/04/30 19:35:47;;;;;;;5.55;2.15;;;18.70;47.90;;;;;;4955263;29;20208;-79
2021/04/30 19:38:13;;;;;;;5.60;2.03;;;18.70;47.90;;;;;;4936700;29;20225;-78
2021/04/30 19:40:49;;;;;;;4.75;2.40;;;18.70;47.50;;;;;;4952910;29;20166;-79
2021/04/30 19:43:27;;;;;;;5.50;2.17;;;18.70;47.90;;;;;;4952893;29;20169;-79
2021/04/30 19:45:53;;;;;;;4.70;2.10;;;18.70;47.80;;;;;;4936754;29;20187;-78
2021/04/30 19:48:19;;;;;;;3.72;2.00;;;18.60;47.90;;;;;;4951068;29;20165;-79
2021/04/30 19:50:45;;;;;;;4.78;2.40;;;18.70;47.80;;;;;;4935313;29;20424;-79
2021/04/30 19:53:13;;;;;;;3.83;2.10;;;18.60;47.80;;;;;;4951130;29;20248;-79
2021/04/30 19:55:39;;;;;;;4.05;2.50;;;18.60;47.80;;;;;;4935602;29;20170;-79
2021/04/30 19:58:05;;;;;;;5.13;2.03;;;18.60;47.80;;;;;;4935224;29;20262;-79
2021/04/30 20:00:33;;;;;;;5.40;2.10;;;18.60;47.80;;;;;;4934070;29;20166;-79
2021/04/30 20:02:59;;;;;;;2.45;2.00;;;18.60;47.90;;;;;;4951503;29;20233;-79
2021/04/30 20:05:25;;;;;;;5.53;2.13;;;18.60;47.30;;;;;;4935709;29;20174;-79
2021/04/30 20:07:53;;;;;;;5.82;2.20;;;18.60;47.90;;;;;;4951183;29;20618;-79
2021/04/30 20:10:30;;;;;;;6.13;2.20;;;18.60;47.90;;;;;;4934898;29;20192;-79
2021/04/30 20:12:58;;;;;;;5.28;2.13;;;18.60;47.90;;;;;;4950857;29;20280;-79
2021/04/30 20:15:25;;;;;;;4.97;2.40;;;18.60;47.60;;;;;;4935206;29;20225;-79
2021/04/30 20:17:54;;;;;;;4.72;2.05;;;18.60;47.50;;;;;;4934480;29;20168;-79
2021/04/30 20:20:29;;;;;;;4.68;1.90;;;18.60;47.70;;;;;;4935581;29;20167;-79
2021/04/30 20:23:04;;;;;;;4.40;2.00;;;18.60;47.60;;;;;;4935412;29;20162;-79
2021/04/30 20:25:31;;;;;;;4.35;2.13;;;18.60;48.10;;;;;;4952452;29;20158;-79
2021/04/30 20:27:58;;;;;;;3.95;1.85;;;18.60;47.40;;;;;;4951180;29;20626;-79
2021/04/30 20:30:33;;;;;;;8.68;2.20;;;18.50;47.90;;;;;;4935530;29;20162;-79
2021/04/30 20:33:10;;;;;;;6.05;2.20;;;18.60;47.90;;;;;;4935498;29;20202;-79
2021/04/30 20:35:49;;;;;;;3.78;2.20;;;18.60;47.30;;;;;;4935658;29;20170;-79
2021/04/30 20:38:18;;;;;;;5.70;2.30;;;18.60;47.60;;;;;;4934806;29;20222;-79
2021/04/30 20:40:46;;;;;;;4.35;2.08;;;18.50;47.60;;;;;;4936281;29;20181;-79